El Mirage, Arizona
Current Conditions -  °F | °C
As of 7:52 PM on Thursday 30 Oct 2014 (Local Time) from KGEU Reporting Station
Broken Clouds Broken Clouds  
Wind Chill: 77°   Ceiling: 25000
Heat Index: 78°   Visibility: 20mi
Dew Point: 45°   Wind: 0mph
Humidity: 32%   Direction: NA
Pressure: 29.93"   Gusts: NA
Location:  33.62°N, 112.32°W
Report Text: KGEU 310252Z 00000KT 20SM SCT200 BKN250 25/07 A2993
Loading
Personal Weather Stations






























Interactive Weather Map
Tropical Storm Tracking
New forecast layout! Learn more

10-Day Weather Forecast

Advertisements
Track Severe Weather on mobile